Time;durP1;ratioP1;P1;durP2;ratioP2;P2;SDS_P1;SDS_P2;PMS_P1;PMS_P2;Temp;Humidity;BMP_temperature;BMP_pressure;BME280_temperature;BME280_humidity;BME280_pressure;Samples;Min_cycle;Max_cycle;Signal;HPM_P1;HPM_P2
2022/10/23 00:00:39;;;;;;;10.10;2.17;;;17.40;99.90;;;;;;8035719;72;26247;-56
2022/10/23 00:10:44;;;;;;;7.23;2.10;;;17.40;99.90;;;;;;8042632;72;27007;-57
2022/10/23 00:20:46;;;;;;;5.93;2.03;;;17.40;99.90;;;;;;8043336;72;26302;-56
2022/10/23 00:30:49;;;;;;;5.60;2.23;;;17.30;99.90;;;;;;8052760;72;26776;-57
2022/10/23 00:40:51;;;;;;;6.57;2.20;;;17.30;99.90;;;;;;8036595;72;26304;-54
2022/10/23 00:50:55;;;;;;;10.00;2.03;;;17.20;99.90;;;;;;8049565;72;26249;-57
2022/10/23 01:00:57;;;;;;;6.40;2.03;;;17.30;99.90;;;;;;8070663;72;26238;-57
2022/10/23 01:11:11;;;;;;;6.60;2.27;;;17.30;99.90;;;;;;8063632;72;27006;-57
2022/10/23 01:21:32;;;;;;;6.17;1.90;;;17.30;99.90;;;;;;8005104;72;27010;-54
2022/10/23 01:31:37;;;;;;;2.93;1.50;;;17.20;99.90;;;;;;8009472;72;26263;-57
2022/10/23 01:41:45;;;;;;;5.10;1.53;;;17.20;99.90;;;;;;8045080;72;26275;-58
2022/10/23 01:51:51;;;;;;;9.80;1.97;;;17.20;99.90;;;;;;8051324;72;26244;-56
2022/10/23 02:01:57;;;;;;;6.20;2.00;;;17.10;99.90;;;;;;8064662;72;26696;-56
2022/10/23 02:12:08;;;;;;;4.10;2.07;;;17.20;99.90;;;;;;8057631;72;26955;-56
2022/10/23 02:22:13;;;;;;;6.97;1.90;;;17.10;99.90;;;;;;8049747;72;26288;-58
2022/10/23 02:32:19;;;;;;;4.77;1.73;;;17.10;99.90;;;;;;8052738;72;26249;-56
2022/10/23 02:42:28;;;;;;;6.80;1.90;;;17.10;99.90;;;;;;8050647;72;26240;-58
2022/10/23 02:52:59;;;;;;;2.87;1.47;;;17.00;99.90;;;;;;8057529;72;26767;-57
2022/10/23 03:03:13;;;;;;;2.93;1.57;;;17.00;99.90;;;;;;8084506;72;26247;-56
2022/10/23 03:13:15;;;;;;;3.53;1.43;;;16.90;99.90;;;;;;8057296;72;26235;-57
2022/10/23 03:23:18;;;;;;;5.33;2.13;;;17.00;99.90;;;;;;8057468;72;26253;-58
2022/10/23 03:33:20;;;;;;;10.50;1.83;;;16.90;99.90;;;;;;8028481;72;26772;-58
2022/10/23 03:43:23;;;;;;;3.83;1.50;;;16.90;99.90;;;;;;8023684;72;26266;-60
2022/10/23 03:53:25;;;;;;;4.40;1.60;;;16.90;99.90;;;;;;8027118;72;26230;-59
2022/10/23 04:03:28;;;;;;;5.13;2.23;;;16.90;99.90;;;;;;8033985;72;26666;-57
2022/10/23 04:13:30;;;;;;;2.63;1.70;;;16.90;99.90;;;;;;8061467;72;26313;-57
2022/10/23 04:23:33;;;;;;;9.30;1.73;;;16.80;99.90;;;;;;8043160;72;26780;-56
2022/10/23 04:33:35;;;;;;;5.23;1.77;;;16.80;99.90;;;;;;8018859;72;26302;-57
2022/10/23 04:43:38;;;;;;;5.83;1.70;;;16.80;99.90;;;;;;8021746;72;26293;-57
2022/10/23 04:53:40;;;;;;;8.00;1.50;;;16.80;99.90;;;;;;8025845;72;26303;-56
2022/10/23 05:03:43;;;;;;;6.70;1.70;;;16.80;99.90;;;;;;8024260;72;26700;-58
2022/10/23 05:13:45;;;;;;;5.70;1.60;;;16.80;99.90;;;;;;8037771;72;26277;-57
2022/10/23 05:23:48;;;;;;;4.63;2.30;;;16.80;99.90;;;;;;8043404;72;26303;-56
2022/10/23 05:33:51;;;;;;;5.10;1.73;;;16.90;99.90;;;;;;8028908;72;26245;-55
2022/10/23 05:43:54;;;;;;;3.30;1.60;;;16.80;99.90;;;;;;8030772;72;26199;-59
2022/10/23 05:53:56;;;;;;;5.00;1.60;;;16.80;99.90;;;;;;8037358;72;26274;-59
2022/10/23 06:04:00;;;;;;;5.37;1.67;;;16.80;99.90;;;;;;8024793;73;26727;-56
2022/10/23 06:14:02;;;;;;;5.43;1.93;;;16.70;99.90;;;;;;8027685;72;26295;-55
2022/10/23 06:24:06;;;;;;;10.03;2.23;;;16.80;99.90;;;;;;8025328;72;26241;-59
2022/10/23 06:34:10;;;;;;;6.90;3.43;;;16.70;99.90;;;;;;8046963;72;26303;-57
2022/10/23 06:44:13;;;;;;;10.77;4.73;;;16.70;99.90;;;;;;8030944;72;26229;-58
2022/10/23 06:54:15;;;;;;;14.33;5.03;;;16.80;99.90;;;;;;8021323;72;26730;-58
2022/10/23 07:04:18;;;;;;;8.90;4.87;;;16.80;99.90;;;;;;8062916;72;26290;-60
2022/10/23 07:14:20;;;;;;;11.63;4.93;;;16.90;99.90;;;;;;8040043;72;26309;-51
2022/10/23 07:24:23;;;;;;;11.47;4.17;;;16.80;99.90;;;;;;8031380;72;27382;-50
2022/10/23 07:34:25;;;;;;;10.40;4.00;;;16.80;99.90;;;;;;7992204;72;26253;-54
2022/10/23 07:44:28;;;;;;;9.93;3.50;;;16.80;99.90;;;;;;7981846;72;26345;-53
2022/10/23 07:54:30;;;;;;;31.13;7.20;;;16.80;99.90;;;;;;7959825;72;26288;-55
2022/10/23 08:04:33;;;;;;;42.13;10.80;;;16.90;99.90;;;;;;7990672;72;26777;-57
2022/10/23 08:14:35;;;;;;;56.13;13.83;;;17.10;99.90;;;;;;8018129;72;26362;-53
2022/10/23 08:24:38;;;;;;;34.73;13.53;;;17.10;99.90;;;;;;7975969;72;26283;-56
2022/10/23 08:34:41;;;;;;;16.50;6.80;;;17.20;99.90;;;;;;7990305;72;27437;-54
2022/10/23 08:44:47;;;;;;;48.93;19.00;;;17.30;99.90;;;;;;7972617;72;26320;-56
2022/10/23 08:54:53;;;;;;;21.10;9.30;;;17.40;99.90;;;;;;7980241;72;26738;-55
2022/10/23 09:04:57;;;;;;;41.50;13.93;;;17.40;99.90;;;;;;8004738;72;26261;-53
2022/10/23 09:15:21;;;;;;;29.37;13.27;;;17.40;99.90;;;;;;8009922;72;26257;-53
2022/10/23 09:25:27;;;;;;;22.20;9.47;;;17.50;99.90;;;;;;7999203;72;26363;-56
2022/10/23 09:35:30;;;;;;;30.57;12.83;;;17.50;99.90;;;;;;8030880;72;26213;-55
2022/10/23 09:45:34;;;;;;;25.03;9.50;;;17.50;99.90;;;;;;8015814;72;26773;-51
2022/10/23 09:55:37;;;;;;;18.60;8.07;;;17.40;99.90;;;;;;8025931;72;26315;-52
2022/10/23 10:05:42;;;;;;;15.07;6.57;;;17.30;99.90;;;;;;8008244;72;26296;-54
2022/10/23 10:15:48;;;;;;;17.70;7.97;;;17.30;99.90;;;;;;8022097;72;26213;-52
2022/10/23 10:26:09;;;;;;;13.87;6.23;;;17.30;99.90;;;;;;7959303;72;26292;-53
2022/10/23 10:36:33;;;;;;;14.73;5.03;;;17.30;99.90;;;;;;8021902;72;26242;-56
2022/10/23 10:47:01;;;;;;;11.40;5.60;;;17.30;99.90;;;;;;8010546;72;26317;-55
2022/10/23 10:57:07;;;;;;;12.67;5.53;;;17.30;99.90;;;;;;8021862;72;26237;-54
2022/10/23 11:07:12;;;;;;;21.23;10.00;;;17.40;99.90;;;;;;8035831;72;26229;-55
2022/10/23 11:17:18;;;;;;;17.37;7.43;;;17.40;99.90;;;;;;7976706;72;26818;-54
2022/10/23 11:27:46;;;;;;;14.87;7.27;;;17.50;99.90;;;;;;7964671;72;26335;-56
2022/10/23 11:38:10;;;;;;;12.50;4.43;;;17.60;99.90;;;;;;8006709;72;26296;-56
2022/10/23 11:48:22;;;;;;;12.97;4.50;;;17.50;99.90;;;;;;8023385;72;26315;-53
2022/10/23 11:58:30;;;;;;;14.13;5.07;;;17.60;99.90;;;;;;7995763;73;26334;-54
2022/10/23 12:08:34;;;;;;;14.77;3.60;;;17.60;99.90;;;;;;7978747;72;26292;-55
2022/10/23 12:18:49;;;;;;;18.77;4.73;;;17.60;99.90;;;;;;8008702;72;26257;-54
2022/10/23 12:29:03;;;;;;;20.67;3.07;;;17.70;99.90;;;;;;7978327;72;26255;-53
2022/10/23 12:39:25;;;;;;;4.13;2.43;;;17.60;99.90;;;;;;8015721;72;26265;-54
2022/10/23 12:49:34;;;;;;;6.23;2.30;;;17.50;99.90;;;;;;7952583;72;26273;-56
2022/10/23 12:59:40;;;;;;;9.77;2.60;;;17.60;99.90;;;;;;7994640;72;26283;-56
2022/10/23 13:09:44;;;;;;;4.30;2.13;;;17.70;99.90;;;;;;8019302;72;26271;-54
2022/10/23 13:19:46;;;;;;;12.00;3.03;;;17.60;99.90;;;;;;7945875;72;26240;-52
2022/10/23 13:29:49;;;;;;;7.40;2.70;;;17.60;99.90;;;;;;7998630;72;26722;-53
2022/10/23 13:40:00;;;;;;;5.00;1.80;;;17.60;99.90;;;;;;7997358;72;26213;-53
2022/10/23 13:50:05;;;;;;;7.50;2.20;;;17.70;99.90;;;;;;8017044;72;27183;-55
2022/10/23 14:00:08;;;;;;;5.03;1.63;;;17.70;99.90;;;;;;8001673;72;26235;-53
2022/10/23 14:10:12;;;;;;;5.87;2.20;;;17.80;99.90;;;;;;8035113;72;26184;-54
2022/10/23 14:20:14;;;;;;;8.10;1.83;;;17.80;99.90;;;;;;8050142;72;26907;-52
2022/10/23 14:30:17;;;;;;;9.07;2.93;;;17.80;99.90;;;;;;8058977;72;26273;-54
2022/10/23 14:40:19;;;;;;;10.43;4.83;;;17.80;99.90;;;;;;8040804;72;26732;-55
2022/10/23 14:50:22;;;;;;;10.10;3.23;;;17.80;99.90;;;;;;8036433;72;26286;-53
2022/10/23 15:00:24;;;;;;;10.03;3.53;;;17.80;99.90;;;;;;8049243;72;26270;-55
2022/10/23 15:10:27;;;;;;;5.97;2.63;;;17.80;99.90;;;;;;8001955;72;26563;-53
2022/10/23 15:20:29;;;;;;;7.27;2.40;;;17.80;99.90;;;;;;8043674;72;26234;-53
2022/10/23 15:30:33;;;;;;;12.13;2.67;;;17.80;99.90;;;;;;8035467;72;26226;-54
2022/10/23 15:40:35;;;;;;;10.90;2.97;;;17.80;99.90;;;;;;8050406;72;26768;-55
2022/10/23 15:50:38;;;;;;;5.00;2.30;;;17.80;99.90;;;;;;8048068;72;26201;-53
2022/10/23 16:00:41;;;;;;;9.00;3.40;;;17.80;99.90;;;;;;8038624;72;26295;-54
2022/10/23 16:10:43;;;;;;;7.57;2.97;;;17.80;99.90;;;;;;8027029;72;26207;-54
2022/10/23 16:20:46;;;;;;;19.33;3.37;;;17.80;99.90;;;;;;8044573;72;26240;-54
2022/10/23 16:30:48;;;;;;;18.67;5.73;;;17.80;99.90;;;;;;8044456;72;27073;-53
2022/10/23 16:40:52;;;;;;;10.00;2.90;;;17.80;99.90;;;;;;8063926;72;26229;-55
2022/10/23 16:50:55;;;;;;;9.73;2.77;;;17.80;99.90;;;;;;8056172;72;26277;-55
2022/10/23 17:01:07;;;;;;;10.33;4.30;;;17.80;99.90;;;;;;8056206;72;26307;-55
2022/10/23 17:11:15;;;;;;;18.40;4.77;;;17.80;99.90;;;;;;8041282;72;26281;-52
2022/10/23 17:21:19;;;;;;;17.83;3.77;;;17.80;99.90;;;;;;8042914;72;26319;-55
2022/10/23 17:31:27;;;;;;;12.83;4.40;;;17.90;99.90;;;;;;8019453;72;26279;-54
2022/10/23 17:41:30;;;;;;;24.97;5.60;;;17.90;99.90;;;;;;7998312;72;26721;-55
2022/10/23 17:51:34;;;;;;;17.33;4.70;;;17.90;99.90;;;;;;7978309;72;26261;-56
2022/10/23 18:01:37;;;;;;;23.67;4.20;;;17.90;99.90;;;;;;8045585;72;26248;-52
2022/10/23 18:11:43;;;;;;;16.50;4.90;;;18.00;99.90;;;;;;8015149;72;26222;-53
2022/10/23 18:21:46;;;;;;;20.27;4.17;;;18.00;99.90;;;;;;8051624;72;26712;-53
2022/10/23 18:31:49;;;;;;;13.80;3.93;;;18.00;99.90;;;;;;8057332;72;26222;-55
2022/10/23 18:41:54;;;;;;;14.13;3.97;;;18.00;99.90;;;;;;8053455;72;26229;-56
2022/10/23 18:51:57;;;;;;;19.17;4.37;;;18.10;99.90;;;;;;8003431;72;26202;-52
2022/10/23 19:02:00;;;;;;;15.87;3.67;;;18.10;99.90;;;;;;8019268;72;26221;-55
2022/10/23 19:12:04;;;;;;;11.77;4.43;;;18.20;99.90;;;;;;8021487;72;26280;-56
2022/10/23 19:22:09;;;;;;;11.80;3.97;;;18.10;99.90;;;;;;8050931;72;26293;-55
2022/10/23 19:32:12;;;;;;;10.87;3.70;;;18.20;99.90;;;;;;8018878;72;26751;-56
2022/10/23 19:42:14;;;;;;;20.83;4.67;;;18.20;99.90;;;;;;8021071;72;26699;-56
2022/10/23 19:52:17;;;;;;;13.50;3.73;;;18.20;99.90;;;;;;8047302;72;26273;-56
2022/10/23 20:02:20;;;;;;;11.13;3.10;;;18.20;99.90;;;;;;8058501;72;26209;-55
2022/10/23 20:12:23;;;;;;;13.30;4.03;;;18.20;99.90;;;;;;8045210;72;26668;-56
2022/10/23 20:22:25;;;;;;;14.80;5.20;;;18.30;99.90;;;;;;8045831;72;26281;-56
2022/10/23 20:32:28;;;;;;;20.00;4.00;;;18.20;99.90;;;;;;8035774;72;26202;-56
2022/10/23 20:42:30;;;;;;;13.53;3.80;;;18.20;99.90;;;;;;8043570;72;26284;-55
2022/10/23 20:52:33;;;;;;;10.43;3.57;;;18.20;99.90;;;;;;8033398;72;26252;-54
2022/10/23 21:02:35;;;;;;;9.07;3.77;;;18.30;99.90;;;;;;8036767;72;26215;-53
2022/10/23 21:12:37;;;;;;;11.53;3.10;;;18.20;99.90;;;;;;8027187;72;26218;-53
2022/10/23 21:22:40;;;;;;;12.93;3.43;;;18.20;99.90;;;;;;8007945;72;26804;-52
2022/10/23 21:32:42;;;;;;;10.17;3.57;;;18.30;99.90;;;;;;7976667;72;26260;-54
2022/10/23 21:42:45;;;;;;;13.83;3.30;;;18.20;99.90;;;;;;8050372;72;26214;-55
2022/10/23 21:52:52;;;;;;;16.73;3.23;;;18.30;99.90;;;;;;8075050;72;26347;-54
2022/10/23 22:02:54;;;;;;;14.97;2.90;;;18.20;99.90;;;;;;8083221;72;26219;-53
2022/10/23 22:12:57;;;;;;;12.50;3.37;;;18.20;99.90;;;;;;8076774;72;26264;-51
2022/10/23 22:22:59;;;;;;;6.63;3.00;;;18.30;99.90;;;;;;8038613;72;26736;-52
2022/10/23 22:33:02;;;;;;;9.00;3.30;;;18.30;99.90;;;;;;8041006;72;26284;-54
2022/10/23 22:43:04;;;;;;;5.20;3.17;;;18.30;99.90;;;;;;7964550;72;26365;-55
2022/10/23 22:53:07;;;;;;;8.10;3.37;;;18.30;99.90;;;;;;8046963;72;26750;-53
2022/10/23 23:03:09;;;;;;;15.00;4.17;;;18.30;99.90;;;;;;7993260;72;26236;-53
2022/10/23 23:13:12;;;;;;;7.60;3.27;;;18.30;99.90;;;;;;8027580;72;26745;-60
2022/10/23 23:23:15;;;;;;;15.27;4.33;;;18.30;99.90;;;;;;8102546;72;26299;-60
2022/10/23 23:33:22;;;;;;;11.83;3.70;;;18.30;99.90;;;;;;8150828;71;26353;-59
2022/10/23 23:43:25;;;;;;;11.20;3.50;;;18.30;99.90;;;;;;8183869;71;26289;-59
2022/10/23 23:53:27;;;;;;;15.37;3.67;;;18.30;99.90;;;;;;8169939;71;27335;-60
